createdAt,value
2022-08-26T00:00:13.540Z,99.90
2022-08-26T00:05:27.570Z,99.90
2022-08-26T00:10:44.921Z,99.90
2022-08-26T00:15:51.833Z,99.90
2022-08-26T00:20:57.198Z,99.90
2022-08-26T00:26:06.841Z,99.90
2022-08-26T00:31:18.613Z,99.90
2022-08-26T00:36:38.177Z,99.90
2022-08-26T00:41:45.145Z,99.90
2022-08-26T00:46:54.191Z,99.90
2022-08-26T00:52:02.935Z,99.90
2022-08-26T00:57:27.377Z,99.90
2022-08-26T01:02:35.911Z,99.90
2022-08-26T01:07:42.924Z,99.90
2022-08-26T01:13:00.203Z,99.90
2022-08-26T01:18:16.481Z,99.90
2022-08-26T01:23:36.515Z,99.90
2022-08-26T01:28:51.485Z,99.90
2022-08-26T01:34:09.919Z,99.90
2022-08-26T01:39:40.233Z,99.90
2022-08-26T01:44:57.176Z,99.90
2022-08-26T01:50:08.244Z,99.90
2022-08-26T01:55:39.694Z,99.90
2022-08-26T02:01:13.395Z,99.90
2022-08-26T02:06:34.731Z,99.90
2022-08-26T02:11:49.048Z,99.90
2022-08-26T02:17:16.748Z,99.90
2022-08-26T02:22:28.635Z,99.90
2022-08-26T02:27:53.431Z,99.90
2022-08-26T02:33:06.205Z,99.90
2022-08-26T02:38:43.146Z,99.90
2022-08-26T02:44:13.214Z,99.90
2022-08-26T02:49:20.763Z,99.90
2022-08-26T02:54:41.554Z,99.90
2022-08-26T03:00:23.976Z,99.90
2022-08-26T03:05:37.995Z,99.90
2022-08-26T03:22:33.654Z,99.90
2022-08-26T03:27:42.997Z,99.90
2022-08-26T03:33:12.395Z,99.90
2022-08-26T03:39:03.624Z,99.90
2022-08-26T03:44:15.383Z,99.90
2022-08-26T03:54:57.605Z,99.90
2022-08-26T04:00:18.498Z,99.90
2022-08-26T04:05:36.489Z,99.90
2022-08-26T04:10:47.112Z,99.90
2022-08-26T04:16:05.734Z,99.90
2022-08-26T04:21:36.691Z,99.90
2022-08-26T04:27:17.616Z,99.90
2022-08-26T04:32:29.983Z,99.90
2022-08-26T04:37:37.091Z,99.90
2022-08-26T04:42:50.899Z,99.90
2022-08-26T04:54:07.059Z,99.90
2022-08-26T04:59:39.564Z,99.90
2022-08-26T05:28:48.137Z,99.90
2022-08-26T05:34:10.979Z,99.90
2022-08-26T05:45:36.647Z,99.90
2022-08-26T05:56:48.014Z,99.90
2022-08-26T06:01:58.745Z,99.90
2022-08-26T06:07:15.489Z,99.90
2022-08-26T06:12:40.060Z,99.90
2022-08-26T06:17:46.879Z,99.90
2022-08-26T06:23:17.838Z,99.90
2022-08-26T06:28:24.769Z,99.90
2022-08-26T06:33:31.655Z,99.90
2022-08-26T06:38:37.598Z,99.90
2022-08-26T06:43:44.645Z,99.90
2022-08-26T06:48:50.339Z,99.90
2022-08-26T06:53:59.409Z,99.90
2022-08-26T06:59:07.609Z,99.90
2022-08-26T07:04:22.126Z,99.90
2022-08-26T07:09:27.926Z,99.90
2022-08-26T07:14:34.734Z,99.90
2022-08-26T07:19:41.430Z,99.90
2022-08-26T07:24:46.755Z,99.90
2022-08-26T07:29:57.038Z,99.90
2022-08-26T07:35:06.350Z,99.90
2022-08-26T07:40:13.431Z,99.90
2022-08-26T07:45:20.590Z,99.90
2022-08-26T07:50:49.572Z,97.50
2022-08-26T07:55:39.114Z,95.00
2022-08-26T08:01:06.817Z,95.30
2022-08-26T08:06:15.446Z,94.20
2022-08-26T08:11:22.576Z,93.00
2022-08-26T08:16:32.207Z,92.60
2022-08-26T08:21:36.899Z,91.10
2022-08-26T08:26:42.599Z,88.90
2022-08-26T08:31:58.502Z,87.10
2022-08-26T08:36:57.487Z,83.80
2022-08-26T08:42:34.797Z,79.60
2022-08-26T08:47:47.594Z,71.90
2022-08-26T08:53:09.041Z,68.60
2022-08-26T08:58:19.133Z,66.30
2022-08-26T09:03:45.602Z,63.40
2022-08-26T09:08:56.763Z,61.50
2022-08-26T09:14:03.766Z,61.20
2022-08-26T09:19:23.281Z,59.70
2022-08-26T09:24:31.144Z,58.20
2022-08-26T09:29:50.462Z,59.00
2022-08-26T09:35:23.753Z,59.70
2022-08-26T09:40:37.283Z,56.60
2022-08-26T09:45:54.975Z,56.70
2022-08-26T09:51:01.367Z,56.80
2022-08-26T09:56:19.298Z,54.10
2022-08-26T10:01:32.898Z,55.10
2022-08-26T10:06:41.525Z,53.60
2022-08-26T10:11:56.147Z,53.40
2022-08-26T10:17:31.718Z,52.30
2022-08-26T10:22:39.923Z,52.40
2022-08-26T10:27:55.201Z,52.70
2022-08-26T10:33:03.594Z,49.60
2022-08-26T10:38:14.641Z,49.70
2022-08-26T10:43:34.453Z,50.50
2022-08-26T10:48:45.719Z,48.30
2022-08-26T10:54:14.750Z,51.00
2022-08-26T10:59:23.044Z,47.10
2022-08-26T11:04:50.778Z,48.30
2022-08-26T11:09:56.980Z,48.20
2022-08-26T11:15:24.644Z,48.00
2022-08-26T11:20:47.335Z,45.00
2022-08-26T11:26:01.932Z,45.90
2022-08-26T11:31:10.676Z,44.40
2022-08-26T11:36:50.331Z,45.60
2022-08-26T11:42:00.266Z,47.00
2022-08-26T11:47:07.853Z,46.80
2022-08-26T11:52:22.989Z,46.90
2022-08-26T11:57:30.257Z,46.40
2022-08-26T12:02:35.612Z,46.90
2022-08-26T12:07:42.659Z,46.70
2022-08-26T12:12:51.140Z,44.80
2022-08-26T12:17:56.497Z,46.50
2022-08-26T12:23:02.817Z,44.50
2022-08-26T12:28:08.585Z,45.40
2022-08-26T12:33:22.957Z,45.50
2022-08-26T12:38:25.116Z,45.60
2022-08-26T12:43:42.617Z,45.40
2022-08-26T12:48:50.628Z,44.00
2022-08-26T12:53:56.379Z,44.20
2022-08-26T12:59:13.420Z,44.00
2022-08-26T13:04:36.279Z,43.80
2022-08-26T13:09:42.090Z,44.80
2022-08-26T13:14:48.559Z,43.40
2022-08-26T13:19:53.990Z,45.80
2022-08-26T13:24:59.420Z,46.00
2022-08-26T13:30:05.326Z,46.20
2022-08-26T13:35:12.691Z,43.90
2022-08-26T13:40:18.165Z,45.30
2022-08-26T13:45:23.582Z,45.30
2022-08-26T13:50:28.895Z,44.60
2022-08-26T13:55:49.513Z,45.20
2022-08-26T14:00:57.022Z,45.20
2022-08-26T14:06:02.396Z,45.60
2022-08-26T14:11:08.640Z,44.80
2022-08-26T14:16:25.808Z,44.70
2022-08-26T14:21:33.640Z,44.70
2022-08-26T14:26:39.159Z,44.40
2022-08-26T14:31:50.273Z,44.30
2022-08-26T14:36:55.648Z,44.50
2022-08-26T14:42:01.660Z,44.50
2022-08-26T14:47:07.537Z,45.70
2022-08-26T14:52:14.080Z,44.70
2022-08-26T14:57:19.489Z,46.20
2022-08-26T15:02:40.178Z,45.90
2022-08-26T15:07:32.207Z,45.80
2022-08-26T15:12:39.326Z,46.10
2022-08-26T15:17:44.845Z,46.60
2022-08-26T15:22:50.867Z,47.10
2022-08-26T15:27:59.502Z,47.40
2022-08-26T15:33:14.874Z,47.70
2022-08-26T15:38:14.613Z,46.40
2022-08-26T15:43:28.649Z,47.60
2022-08-26T15:48:28.947Z,48.80
2022-08-26T15:53:36.757Z,48.30
2022-08-26T15:58:42.785Z,49.40
2022-08-26T16:03:52.249Z,47.60
2022-08-26T16:08:59.164Z,48.80
2022-08-26T16:14:07.831Z,49.30
2022-08-26T16:19:13.502Z,49.60
2022-08-26T16:24:25.912Z,49.50
2022-08-26T16:29:29.713Z,50.00
2022-08-26T16:34:36.298Z,50.80
2022-08-26T16:39:45.173Z,51.50
2022-08-26T16:44:48.770Z,52.30
2022-08-26T16:49:54.109Z,53.00
2022-08-26T16:55:00.049Z,54.00
2022-08-26T17:00:09.907Z,54.80
2022-08-26T17:05:15.769Z,55.10
2022-08-26T17:10:21.822Z,55.80
2022-08-26T17:15:27.280Z,55.90
2022-08-26T17:20:32.712Z,57.50
2022-08-26T17:25:38.819Z,58.00
2022-08-26T17:30:44.763Z,59.70
2022-08-26T17:35:50.160Z,61.40
2022-08-26T17:40:56.490Z,62.90
2022-08-26T17:46:06.607Z,64.00
2022-08-26T17:51:17.292Z,65.10
2022-08-26T17:56:25.703Z,66.20
2022-08-26T18:01:31.120Z,67.40
2022-08-26T18:06:38.557Z,68.80
2022-08-26T18:11:43.948Z,69.90
2022-08-26T18:16:49.826Z,72.00
2022-08-26T18:22:01.114Z,73.60
2022-08-26T18:27:06.617Z,74.90
2022-08-26T18:32:11.888Z,76.10
2022-08-26T18:37:17.327Z,77.20
2022-08-26T18:42:23.974Z,78.20
2022-08-26T18:47:30.435Z,79.90
2022-08-26T18:52:35.910Z,81.10
2022-08-26T18:57:41.879Z,82.40
2022-08-26T19:03:01.878Z,83.80
2022-08-26T19:08:08.585Z,86.10
2022-08-26T19:13:14.132Z,90.00
2022-08-26T19:18:21.480Z,91.00
2022-08-26T19:23:31.826Z,91.40
2022-08-26T19:28:34.676Z,91.90
2022-08-26T19:33:45.599Z,91.90
2022-08-26T19:38:52.061Z,93.10
2022-08-26T19:43:59.012Z,93.70
2022-08-26T19:49:04.323Z,94.20
2022-08-26T19:54:10.573Z,94.70
2022-08-26T19:59:15.896Z,95.40
2022-08-26T20:04:21.225Z,96.40
2022-08-26T20:09:26.596Z,97.70
2022-08-26T20:14:31.972Z,99.00
2022-08-26T20:19:55.332Z,99.70
2022-08-26T20:25:00.690Z,99.90
2022-08-26T20:30:08.152Z,99.90
2022-08-26T20:35:15.412Z,99.90
2022-08-26T20:40:21.580Z,99.90
2022-08-26T20:45:27.126Z,99.90
2022-08-26T20:50:33.434Z,99.90
2022-08-26T20:55:39.307Z,99.90
2022-08-26T21:00:44.763Z,99.90
2022-08-26T21:05:50.664Z,99.90
2022-08-26T21:10:56.251Z,99.90
2022-08-26T21:16:01.632Z,99.90
2022-08-26T21:21:09.002Z,99.90
2022-08-26T21:26:16.005Z,99.90
2022-08-26T21:31:24.296Z,99.90
2022-08-26T21:36:29.664Z,99.90
2022-08-26T21:41:35.127Z,99.90
2022-08-26T21:46:40.770Z,99.90
2022-08-26T21:51:48.722Z,99.90
2022-08-26T21:56:54.151Z,99.90
2022-08-26T22:02:00.534Z,99.90
2022-08-26T22:07:06.159Z,99.90
2022-08-26T22:12:12.852Z,99.90
2022-08-26T22:17:18.258Z,99.90
2022-08-26T22:22:23.596Z,99.90
2022-08-26T22:27:29.035Z,99.90
2022-08-26T22:32:35.520Z,99.90
2022-08-26T22:37:41.576Z,99.90
2022-08-26T22:42:55.574Z,99.90
2022-08-26T22:47:54.010Z,99.90
2022-08-26T22:52:59.777Z,99.90
2022-08-26T22:58:06.989Z,99.90
2022-08-26T23:03:12.768Z,99.90
2022-08-26T23:08:18.272Z,99.90
2022-08-26T23:13:32.498Z,99.90
2022-08-26T23:18:38.717Z,99.90
2022-08-26T23:23:46.374Z,99.90
2022-08-26T23:28:51.740Z,99.90
2022-08-26T23:34:14.899Z,99.90
2022-08-26T23:39:20.357Z,99.90
2022-08-26T23:44:26.874Z,99.90
2022-08-26T23:49:32.972Z,99.90
2022-08-26T23:54:40.026Z,99.90
2022-08-26T23:59:48.799Z,99.90
